Skip Navigation Links
NOAA logo - Click to go to the NOAA homepage
NOAA's National Weather Service
Alaska Aviation Weather Unit
  NWS logo - Click to go to the NWS homepage
Left Navbar Graphic     15 AKDT = 23 GMT

   
NOAA is celebrating 200 years of science, service, and stewardship. Visit the NOAA 200th celebration Web site to learn more.
USA.gov is the U.S. Government's official Web portal to all Federal, state and local government Web resources and services.
Facebook
NWS on Facebook

Important Change Regarding the AAWU Web Presence

 

Over the last several months, the AAWU has been working to navigate its webpages to a nationally supported server. Security, as well as other needs, have necessitated the change.  We have been given an extension for the site changeover while we diligently work at addressing feedback received. As of July 14, 2017, aawu.arh.noaa.gov will be discontinued. The new AAWU web address is weather.gov/aawu. It is now live and will run in-parallel with the old site until it is discontinued on July 14, 2017. Please continue to send any feedback or questions regarding the new webpages to nws.ar.aawu.webauthors@noaa.gov.  Thank you for your patience during this time of transition.
AAWU Home :: Display TAF Add Bookmark
SPECI PAMM 191714Z AUTO 00000KT 4SM -RA BR BKN013 BKN018 BKN030 07/06
     A2894 RMK AO2 P0000=

SPECI PAMM 191725Z AUTO 15004KT 3SM -RA BR SCT013 BKN020 07/06 A2895 RMK
     AO2 P0002=

METAR PAMM 191756Z AUTO 10003KT 6SM -RA BR SCT020 BKN026 OVC034 07/06
     A2897 RMK AO2 SLP800 P0008 60062 T00720061 10072 20056
     53017=

SPECI PAMM 191809Z AUTO 10003KT 10SM -RA FEW017 OVC034 07/06 A2897 RMK
     AO2 P0000=

SPECI PAMM 191852Z AUTO VRB03KT 5SM -RA BR BKN021 BKN027 OVC036
 08/07 A2899 RMK AO2 P0001=

METAR PAMM 191856Z AUTO 13003KT 9SM -RA BKN021 OVC027 08/07 A2899 RMK
     AO2 SLP808 P0001 T00780067=

METAR PAMM 191956Z AUTO 19006KT 10SM FEW007 OVC016 09/08 A2901 RMK AO2
     RAE48 SLP815 P0001 T00890078=

SPECI PAMM 192011Z AUTO 18007KT 10SM OVC014 09/08 A2901 RMK AO2=

METAR PAMM 192056Z AUTO VRB06KT 8SM -RA OVC014 09/08 A2902 RMK AO2 RAB51
     SLP819 P0000 60002 T00890078 53012=

METAR PAMM 192156Z AUTO 20006KT 8SM -RA OVC012 09/08 A2903 RMK AO2
 SLP823 P0003 T00890078=

METAR PAMM 192256Z AUTO VRB06KT 9SM SCT010 BKN015 OVC036 09/08 A2904
 RMK AO2 RAE47 SLP823 P0003 T00940083=


NOAA's National Weather Service
Alaska Aviation Weather Unit
6930 Sand Lake Road
Anchorage, AK 99502-1845
Disclaimer
Credits
Glossary
Privacy Policy
About Us
Career Opportunities
Contact AAWU Internet Services Site last modified: April, 17th 2012